Time;durP1;ratioP1;P1;durP2;ratioP2;P2;SDS_P1;SDS_P2;PMS_P1;PMS_P2;Temp;Humidity;BMP_temperature;BMP_pressure;BME280_temperature;BME280_humidity;BME280_pressure;Samples;Min_cycle;Max_cycle;Signal;HPM_P1;HPM_P2
2023/03/11 06:13:28;;;;;;;;;2.33;2.33;;;;;8.08;60.47;5368.66;4974558;28;45281;-95
2023/03/11 06:15:53;;;;;;;;;4.67;3.00;;;;;7.88;60.35;5366.03;4957538;28;45350;-94
2023/03/11 06:18:19;;;;;;;;;2.33;2.33;;;;;7.13;60.37;5355.94;4941813;28;45301;-95
2023/03/11 06:20:44;;;;;;;;;4.00;3.67;;;;;6.74;60.16;5681.69;4971008;28;45351;-95
2023/03/11 06:23:09;;;;;;;;;3.00;3.00;;;;;8.32;60.57;5372.00;4978522;28;45273;-92
2023/03/11 06:25:35;;;;;;;;;4.67;2.67;;;;;7.85;60.43;5365.63;4979204;28;45399;-94
2023/03/11 06:28:00;;;;;;;;;3.00;3.00;;;;;8.29;60.45;5039.78;4961060;28;45299;-94
2023/03/11 06:30:25;;;;;;;;;1.00;1.00;;;;;7.86;60.43;5365.75;4977765;28;45324;-93
2023/03/11 06:32:51;;;;;;;;;6.00;3.67;;;;;7.96;60.95;5367.06;4960807;28;45544;-93
2023/03/11 06:35:16;;;;;;;;;3.00;3.00;;;;;8.01;60.43;5367.84;4960169;28;45369;-91
2023/03/11 06:37:42;;;;;;;;;3.67;2.67;;;;;8.16;60.97;5369.78;4978033;28;45356;-92
2023/03/11 06:40:09;;;;;;;;;3.67;3.67;;;;;7.77;61.13;5033.00;4966728;28;47290;-92
2023/03/11 06:42:35;;;;;;;;;3.67;3.67;;;;;8.19;60.94;5038.53;4958058;28;45348;-92
2023/03/11 06:45:00;;;;;;;;;4.67;4.00;;;;;8.35;60.74;4708.81;4958251;28;45253;-91
2023/03/11 06:47:26;;;;;;;;;0.00;0.00;;;;;8.39;60.94;4709.31;4958852;28;45409;-92
2023/03/11 06:49:52;;;;;;;;;4.33;4.33;;;;;7.80;60.77;4370.47;4977502;28;46125;-93
2023/03/11 06:52:17;;;;;;;;;3.00;3.00;;;;;7.05;60.86;4692.59;4977341;28;45511;-92
2023/03/11 06:54:43;;;;;;;;;11.67;6.00;;;;;7.67;60.91;4368.94;4977709;28;45491;-93
2023/03/11 06:57:09;;;;;;;;;7.33;3.67;;;;;8.35;61.11;4045.28;4989098;28;45362;-93
2023/03/11 06:59:35;;;;;;;;;6.00;5.67;;;;;8.48;60.56;3715.03;5000792;28;45515;-93
2023/03/11 07:02:02;;;;;;;;;5.00;5.00;;;;;7.87;60.81;4039.84;4983037;28;45480;-93
2023/03/11 07:04:28;;;;;;;;;4.00;4.00;;;;;8.62;60.78;4048.44;4980501;28;45428;-96
2023/03/11 07:06:54;;;;;;;;;5.33;4.00;;;;;8.65;60.58;3716.88;4964163;28;45405;-89
2023/03/11 07:09:21;;;;;;;;;6.00;6.00;;;;;7.67;60.45;4037.59;4961585;28;47509;-90
2023/03/11 07:11:46;;;;;;;;;4.00;4.00;;;;;8.26;60.97;3712.63;4978133;28;45491;-88
2023/03/11 07:14:12;;;;;;;;;4.00;4.00;;;;;7.61;60.73;3374.31;4979589;28;45374;-88
2023/03/11 07:16:38;;;;;;;;;7.33;5.00;;;;;8.38;60.69;3050.56;4961665;28;45677;-88
2023/03/11 07:19:03;;;;;;;;;10.00;6.00;;;;;8.48;60.54;3714.97;4967049;28;45470;-88
2023/03/11 07:21:30;;;;;;;;;5.00;5.00;;;;;8.58;60.80;3052.53;4961234;28;45616;-88
2023/03/11 07:23:59;;;;;;;;;5.00;5.00;;;;;8.80;60.80;3054.69;4971389;28;45531;-88
2023/03/11 07:26:25;;;;;;;;;5.00;5.00;;;;;8.36;60.78;3050.38;4988864;28;45536;-88
2023/03/11 07:28:53;;;;;;;;;4.00;3.33;;;;;8.40;60.61;3050.84;4978018;28;46794;-88
2023/03/11 07:31:22;;;;;;;;;5.00;5.00;;;;;8.55;60.34;3052.22;4971989;28;45747;-88
2023/03/11 07:33:48;;;;;;;;;5.33;5.33;;;;;8.12;60.39;3048.03;4974542;28;45479;-88
2023/03/11 07:36:17;;;;;;;;;5.33;4.67;;;;;8.58;60.00;3716.09;4961333;28;45496;-88
2023/03/11 07:38:43;;;;;;;;;5.67;5.67;;;;;8.90;60.44;3387.63;4972032;28;45412;-88
2023/03/11 07:41:10;;;;;;;;;5.00;5.00;;;;;8.51;60.02;3051.84;4960217;28;45367;-88
2023/03/11 07:43:36;;;;;;;;;5.00;5.00;;;;;7.81;60.00;3045.03;4971372;28;45420;-87
2023/03/11 07:46:08;;;;;;;;;7.00;5.00;;;;;8.83;60.24;3055.00;4982786;28;45455;-89
2023/03/11 07:48:36;;;;;;;;;5.00;5.00;;;;;8.62;59.72;3384.72;4970059;28;47533;-90
2023/03/11 07:51:06;;;;;;;;;4.67;4.00;;;;;9.04;59.10;4053.22;4976568;28;45468;-90
2023/03/11 07:53:31;;;;;;;;;4.67;4.67;;;;;8.80;59.02;4050.41;4960754;28;45551;-89
2023/03/11 07:55:58;;;;;;;;;3.33;3.33;;;;;9.14;58.47;4718.66;4979294;28;45532;-89
2023/03/11 07:58:24;;;;;;;;;4.00;4.00;;;;;8.72;58.39;5045.38;4977731;28;45570;-90
2023/03/11 08:00:50;;;;;;;;;4.33;4.33;;;;;9.23;57.61;5384.34;4948700;28;45334;-89
2023/03/11 08:03:16;;;;;;;;;2.33;2.33;;;;;8.03;57.61;5699.78;4952562;28;45452;-89
2023/03/11 08:05:41;;;;;;;;;4.00;4.00;;;;;8.42;57.07;5373.31;4963576;28;45463;-90
2023/03/11 08:08:06;;;;;;;;;3.00;3.00;;;;;8.13;57.71;5369.44;4966735;28;47796;-96
2023/03/11 08:10:35;;;;;;;;;3.00;2.00;;;;;9.36;57.40;5386.00;4976860;28;45432;-95
2023/03/11 08:13:01;;;;;;;;;6.00;3.33;;;;;9.47;57.33;6052.44;4976941;28;45388;-96
2023/03/11 08:15:26;;;;;;;;;3.33;3.33;;;;;8.54;56.35;6370.81;4946992;28;45324;-96
2023/03/11 08:17:51;;;;;;;;;3.00;3.00;;;;;8.75;56.52;6706.13;4961817;28;47103;-96
2023/03/11 08:20:17;;;;;;;;;3.67;3.67;;;;;7.38;56.37;7347.69;4962345;28;45326;-96
2023/03/11 08:22:42;;;;;;;;;3.67;3.67;;;;;8.33;56.10;6699.59;4981058;28;45369;-96
2023/03/11 08:25:09;;;;;;;;;4.00;2.67;;;;;9.58;56.25;7051.84;4964201;28;45356;-95
2023/03/11 08:27:34;;;;;;;;;2.67;2.00;;;;;8.69;55.61;7369.53;4956864;28;48087;-95
2023/03/11 08:29:59;;;;;;;;;4.00;4.00;;;;;8.36;56.02;7363.94;4956528;28;45377;-96
2023/03/11 08:32:25;;;;;;;;;2.33;2.33;;;;;9.37;55.86;7713.44;4971311;28;45551;-95
2023/03/11 08:34:50;;;;;;;;;3.33;3.00;;;;;8.80;55.57;7371.34;4971129;28;46106;-96
2023/03/11 08:37:16;;;;;;;;;2.00;2.00;;;;;8.83;55.26;7704.22;4960543;28;47377;-96
2023/03/11 08:39:41;;;;;;;;;3.00;3.00;;;;;8.44;55.00;7697.47;4965754;28;45664;-96
2023/03/11 08:42:06;;;;;;;;;4.00;4.00;;;;;9.16;55.75;7709.88;4957044;28;45531;-96
2023/03/11 08:44:32;;;;;;;;;3.00;3.00;;;;;9.25;55.58;7379.00;4957138;28;45404;-96
2023/03/11 08:46:57;;;;;;;;;4.00;4.00;;;;;9.53;55.29;7716.28;4957987;28;48586;-95
2023/03/11 08:49:23;;;;;;;;;4.00;4.00;;;;;9.09;54.94;7376.25;4954102;28;45508;-94
2023/03/11 08:51:48;;;;;;;;;6.00;4.00;;;;;9.88;55.01;7722.31;4953215;28;45568;-95
2023/03/11 08:54:14;;;;;;;;;4.00;3.00;;;;;9.71;55.01;7719.38;4966692;28;45494;-95
2023/03/11 08:56:39;;;;;;;;;6.67;4.00;;;;;8.48;54.70;8030.19;4952033;28;47994;-94
2023/03/11 08:59:04;;;;;;;;;4.33;4.00;;;;;10.19;54.97;7727.75;4973614;28;45559;-96
2023/03/11 09:01:30;;;;;;;;;6.67;4.33;;;;;10.14;53.96;9059.13;4961592;28;45369;-93
2023/03/11 09:03:55;;;;;;;;;4.00;4.00;;;;;9.41;54.19;9377.47;4963620;28;45356;-96
2023/03/11 09:06:21;;;;;;;;;5.00;4.00;;;;;9.48;54.41;9046.22;4961614;28;47085;-93
2023/03/11 09:08:48;;;;;;;;;4.00;4.00;;;;;9.49;54.37;9046.44;4942214;28;45466;-93
2023/03/11 09:11:14;;;;;;;;;5.33;4.00;;;;;10.34;55.14;8396.66;4972134;28;45752;-96
2023/03/11 09:13:41;;;;;;;;;5.67;5.67;;;;;10.49;53.77;8732.66;4973137;28;45446;-96
2023/03/11 09:16:11;;;;;;;;;3.67;3.67;;;;;10.19;52.43;9726.22;4972037;28;47326;-95
2023/03/11 09:18:36;;;;;;;;;5.00;5.00;;;;;9.82;53.07;10051.63;4959945;28;45634;-96
2023/03/11 09:21:01;;;;;;;;;4.00;3.00;;;;;9.76;52.54;10050.44;4972848;28;45571;-96
2023/03/11 09:23:27;;;;;;;;;5.00;4.00;;;;;10.23;52.39;9393.88;4972787;28;45510;-96
2023/03/11 09:25:52;;;;;;;;;5.00;4.00;;;;;9.55;53.01;10046.00;4951571;28;47533;-95
2023/03/11 09:28:18;;;;;;;;;6.00;5.00;;;;;10.25;52.43;10727.38;4956829;28;46350;-95
2023/03/11 09:30:43;;;;;;;;;4.00;4.00;;;;;10.64;52.35;10402.44;4957444;28;46305;-95
2023/03/11 09:33:08;;;;;;;;;6.00;6.00;;;;;10.79;51.90;10739.34;4958363;28;45406;-94
2023/03/11 09:35:34;;;;;;;;;5.67;5.00;;;;;11.07;51.97;10411.88;4961311;28;47223;-95
2023/03/11 09:37:59;;;;;;;;;5.00;5.00;;;;;9.98;51.26;10721.25;4966232;28;45508;-93
2023/03/11 09:40:31;;;;;;;;;3.67;3.00;;;;;11.33;51.16;10751.44;4954796;28;45754;-94
2023/03/11 09:43:07;;;;;;;;;5.00;5.00;;;;;11.65;50.92;10758.41;4973944;28;45612;-93
2023/03/11 09:45:39;;;;;;;;;15.67;10.00;;;;;11.49;50.84;11422.97;4960855;28;47556;-95
2023/03/11 09:48:07;;;;;;;;;7.00;5.33;;;;;11.59;50.88;12093.47;4977166;28;45467;-93
2023/03/11 09:51:13;;;;;;;;;6.00;6.00;;;;;11.60;51.71;11425.47;4976065;28;45510;-95
2023/03/11 09:53:49;;;;;;;;;7.00;7.00;;;;;11.64;51.00;12094.59;4957848;28;46073;-92
2023/03/11 09:56:20;;;;;;;;;4.67;4.67;;;;;11.58;51.33;12427.47;4969048;28;45830;-92
2023/03/11 09:58:49;;;;;;;;;4.00;4.00;;;;;11.53;50.90;13428.59;4960770;28;45537;-93
2023/03/11 10:01:39;;;;;;;;;6.33;6.00;;;;;9.62;50.46;14377.72;4966316;28;45570;-94
2023/03/11 10:04:11;;;;;;;;;4.67;4.67;;;;;10.55;50.60;14737.59;4961591;28;45977;-95
2023/03/11 10:06:38;;;;;;;;;6.33;5.67;;;;;11.47;50.58;14763.94;4961334;28;47188;-94
2023/03/11 10:09:22;;;;;;;;;5.00;5.00;;;;;11.67;50.80;13766.59;4963866;28;45380;-94
2023/03/11 10:12:00;;;;;;;;;8.00;7.00;;;;;11.81;50.53;13770.63;4964171;28;45440;-91
2023/03/11 10:14:41;;;;;;;;;7.00;6.00;;;;;11.31;50.13;14759.53;4961467;28;45777;-93
2023/03/11 10:17:25;;;;;;;;;8.67;8.33;;;;;11.71;50.46;15105.47;4961356;28;48379;-96
2023/03/11 10:19:59;;;;;;;;;7.00;5.33;;;;;11.71;50.21;15774.28;4973651;28;45982;-92
2023/03/11 10:22:42;;;;;;;;;6.00;5.33;;;;;11.50;50.10;16771.41;4974782;28;45416;-92
2023/03/11 10:25:12;;;;;;;;;7.00;5.00;;;;;11.66;50.53;16441.94;4968412;28;45733;-94
2023/03/11 10:27:50;;;;;;;;;7.00;6.00;;;;;11.69;49.86;16777.31;4976638;28;48407;-89
2023/03/11 10:30:25;;;;;;;;;4.33;4.00;;;;;11.43;49.81;17438.09;4969771;28;45475;-89
2023/03/11 10:33:01;;;;;;;;;5.00;5.00;;;;;11.64;50.17;17445.03;4979568;28;45474;-96
2023/03/11 10:35:39;;;;;;;;;4.00;4.00;;;;;11.64;50.01;17445.03;4957530;28;46389;-91
2023/03/11 10:38:16;;;;;;;;;7.33;5.00;;;;;11.92;50.32;16115.31;4955303;28;47555;-90
2023/03/11 10:40:44;;;;;;;;;6.00;5.00;;;;;11.43;50.03;16100.13;4965290;28;45474;-92
2023/03/11 10:43:27;;;;;;;;;7.67;5.33;;;;;11.70;49.76;16443.22;4963524;28;45361;-91
2023/03/11 10:45:53;;;;;;;;;6.00;5.00;;;;;12.13;49.41;17461.31;4973857;28;45706;-92
2023/03/11 10:48:20;;;;;;;;;6.33;6.33;;;;;11.94;49.09;18459.53;4958542;28;48439;-91
2023/03/11 10:50:51;;;;;;;;;8.00;6.67;;;;;12.04;49.53;18128.19;4956337;28;45428;-90
2023/03/11 10:53:19;;;;;;;;;8.00;5.33;;;;;12.20;49.52;17463.69;4963078;28;45472;-94
2023/03/11 10:55:48;;;;;;;;;5.00;5.00;;;;;12.41;49.26;16800.44;4965043;28;45464;-93
2023/03/11 10:58:17;;;;;;;;;3.67;3.67;;;;;11.79;48.81;17449.94;4979634;28;48215;-93
2023/03/11 11:00:43;;;;;;;;;6.00;4.00;;;;;12.62;48.70;17812.59;4962843;28;45446;-93
2023/03/11 11:03:20;;;;;;;;;6.00;5.00;;;;;12.68;48.44;18149.91;4968992;28;45582;-91
2023/03/11 11:06:00;;;;;;;;;7.67;4.67;;;;;12.74;48.25;18487.13;4975559;28;45746;-93
2023/03/11 11:08:27;;;;;;;;;4.00;4.00;;;;;12.95;48.03;19501.00;4968460;28;47540;-91
2023/03/11 11:11:01;;;;;;;;;5.00;5.00;;;;;12.53;47.13;21162.47;4964417;28;46133;-92
2023/03/11 11:13:33;;;;;;;;;4.67;4.67;;;;;12.68;47.11;21504.00;4979311;28;45642;-90
2023/03/11 11:16:02;;;;;;;;;4.33;4.33;;;;;13.09;46.78;21520.25;4974083;28;45406;-91
2023/03/11 11:18:30;;;;;;;;;4.33;4.33;;;;;12.90;46.16;22855.38;4972949;28;47543;-91
2023/03/11 11:21:08;;;;;;;;;4.33;4.33;;;;;12.67;46.36;22845.75;4969520;28;45725;-92
2023/03/11 11:23:41;;;;;;;;;4.00;4.00;;;;;13.49;45.94;25569.66;4954121;28;45491;-91
2023/03/11 11:26:19;;;;;;;;;5.33;5.33;;;;;13.49;46.31;25569.66;4958520;28;45720;-92
2023/03/11 11:28:45;;;;;;;;;5.33;5.33;;;;;12.47;45.62;29217.78;4963654;28;48014;-93
2023/03/11 11:31:24;;;;;;;;;6.00;4.33;;;;;13.01;46.29;28909.44;4959937;28;45397;-94
2023/03/11 11:33:53;;;;;;;;;5.33;4.67;;;;;13.09;46.10;28577.31;4966456;28;45551;-96
2023/03/11 11:36:23;;;;;;;;;4.67;4.00;;;;;13.83;45.20;26931.53;4959108;28;45569;-94
2023/03/11 11:38:51;;;;;;;;;6.33;3.67;;;;;14.51;45.46;24606.31;4960786;28;47488;-95
2023/03/11 11:41:20;;;;;;;;;7.00;3.00;;;;;14.78;44.39;26303.47;4986472;28;46318;-94
2023/03/11 11:43:51;;;;;;;;;4.00;3.00;;;;;15.60;43.90;25330.09;4948958;28;45654;-95
2023/03/11 11:46:33;;;;;;;;;4.00;2.00;;;;;16.28;43.16;25698.91;4959409;28;46300;-91
2023/03/11 11:49:26;;;;;;;;;6.33;4.00;;;;;16.66;41.71;30451.97;4976588;28;48294;-92
2023/03/11 11:51:59;;;;;;;;;4.00;4.00;;;;;16.60;40.47;41624.84;4964947;28;45483;-92
2023/03/11 11:55:12;;;;;;;;;5.00;4.00;;;;;17.17;40.22;47250.94;4975179;28;45405;-92
2023/03/11 11:57:37;;;;;;;;;3.00;3.00;;;;;16.62;39.96;49599.63;4922656;28;46671;-92
2023/03/11 12:00:04;;;;;;;;;3.00;3.00;;;;;16.90;39.92;51992.22;4942388;28;48111;-94
2023/03/11 12:02:56;;;;;;;;;4.00;4.00;;;;;17.44;39.44;54610.16;4938882;28;45440;-93
2023/03/11 12:05:39;;;;;;;;;3.00;3.00;;;;;17.37;39.13;56513.66;4877406;29;45484;-92
2023/03/11 12:08:16;;;;;;;;;3.00;3.00;;;;;17.04;39.57;58357.56;4879653;29;45390;-86
2023/03/11 12:10:48;;;;;;;;;5.33;3.00;;;;;16.74;39.74;59510.28;4877694;29;45470;-87
2023/03/11 12:13:28;;;;;;;;;3.00;3.00;;;;;16.44;40.17;60435.81;4876418;29;45601;-88
2023/03/11 12:16:22;;;;;;;;;4.00;4.00;;;;;16.20;40.87;60775.88;4878601;29;45551;-87
2023/03/11 12:18:57;;;;;;;;;3.00;3.00;;;;;15.78;40.74;61262.13;4878738;29;45684;-86
2023/03/11 12:21:37;;;;;;;;;2.67;2.67;;;;;15.76;40.49;61824.72;4860021;29;46068;-86
2023/03/11 12:24:15;;;;;;;;;3.00;3.00;;;;;15.60;40.67;62307.78;4870391;29;45415;-86
2023/03/11 12:26:45;;;;;;;;;5.33;3.33;;;;;15.08;40.14;62707.28;4879099;29;45778;-86
2023/03/11 12:29:21;;;;;;;;;4.00;2.67;;;;;14.70;41.14;62866.31;4876314;29;45466;-87
2023/03/11 12:31:47;;;;;;;;;3.00;3.00;;;;;14.83;41.37;63242.03;4889126;29;45303;-87
2023/03/11 12:34:18;;;;;;;;;2.00;2.00;;;;;13.95;41.91;63381.22;4882091;29;46323;-88
2023/03/11 12:36:47;;;;;;;;;6.33;4.33;;;;;13.87;42.18;63144.69;4891330;29;45664;-85
2023/03/11 12:39:30;;;;;;;;;4.00;4.00;;;;;14.35;42.53;63267.44;4894386;29;45454;-89
2023/03/11 12:42:16;;;;;;;;;5.33;5.33;;;;;14.28;42.80;63241.16;4917298;28;47669;-88
2023/03/11 12:44:42;;;;;;;;;6.67;4.00;;;;;13.70;42.61;63322.41;4957899;28;45736;-88
2023/03/11 12:47:07;;;;;;;;;4.00;4.00;;;;;14.02;42.47;63609.31;4964242;28;45404;-88
2023/03/11 12:49:34;;;;;;;;;6.00;4.00;;;;;13.92;42.56;63728.34;4953726;28;45918;-88
2023/03/11 12:52:12;;;;;;;;;3.00;3.00;;;;;13.90;43.29;63532.88;4955978;28;46777;-89
2023/03/11 12:54:44;;;;;;;;;4.00;4.00;;;;;13.90;42.48;63731.44;4951428;28;45590;-88
2023/03/11 12:57:25;;;;;;;;;3.33;3.33;;;;;13.98;42.49;63721.16;4956031;28;45376;-88
2023/03/11 13:00:11;;;;;;;;;5.67;3.67;;;;;14.03;42.68;63533.41;4958370;28;45273;-90
2023/03/11 13:03:21;;;;;;;;;4.00;2.00;;;;;13.93;42.94;63649.81;4956456;28;47748;-89
2023/03/11 13:06:20;;;;;;;;;3.00;3.00;;;;;13.86;42.93;63724.94;4916691;28;45513;-88
2023/03/11 13:08:56;;;;;;;;;2.33;2.33;;;;;13.57;42.42;63942.81;4902795;28;45654;-90
2023/03/11 13:11:30;;;;;;;;;3.00;3.00;;;;;13.85;42.90;63840.06;4899162;29;45553;-93
2023/03/11 13:14:15;;;;;;;;;3.67;3.67;;;;;13.86;42.96;63746.16;4883814;29;48184;-91
2023/03/11 13:16:41;;;;;;;;;4.67;4.67;;;;;13.66;42.66;63851.41;4901114;28;45941;-91
2023/03/11 13:19:25;;;;;;;;;4.33;2.67;;;;;13.71;42.72;63995.50;4917694;28;45384;-92
2023/03/11 13:21:51;;;;;;;;;4.00;4.00;;;;;13.41;42.62;64108.06;4902668;28;45652;-92
2023/03/11 13:24:24;;;;;;;;;2.67;2.67;;;;;13.63;42.61;64177.72;4918539;28;45431;-92
2023/03/11 13:26:58;;;;;;;;;2.67;2.67;;;;;13.67;42.96;64131.16;4921602;28;45905;-91
2023/03/11 13:29:43;;;;;;;;;3.33;3.33;;;;;13.66;43.02;64130.06;4925181;28;45340;-93
2023/03/11 13:32:21;;;;;;;;;5.33;5.33;;;;;13.66;42.95;64072.22;4904543;28;45636;-90
2023/03/11 13:35:40;;;;;;;;;2.00;2.00;;;;;13.60;42.97;64123.94;4916907;28;45656;-88
2023/03/11 13:38:59;;;;;;;;;0.00;0.00;;;;;13.54;43.77;63896.47;4859967;29;45470;-90
2023/03/11 13:41:34;;;;;;;;;4.00;4.00;;;;;13.39;43.83;63938.72;4865538;29;45748;-91
2023/03/11 13:44:13;;;;;;;;;5.00;5.00;;;;;12.31;43.66;63832.72;4877688;29;45367;-89
2023/03/11 13:46:43;;;;;;;;;2.33;2.33;;;;;13.00;43.63;63936.28;4874548;29;47325;-91
2023/03/11 13:49:18;;;;;;;;;3.67;2.33;;;;;12.55;43.59;63966.84;4863587;29;45481;-92
2023/03/11 13:51:47;;;;;;;;;4.00;4.00;;;;;13.46;43.53;64042.59;4874985;29;45518;-90
2023/03/11 13:54:24;;;;;;;;;4.67;4.67;;;;;13.16;43.60;64086.06;4875725;29;45376;-90
2023/03/11 13:57:01;;;;;;;;;3.67;3.67;;;;;13.05;44.04;63889.34;4877743;29;45900;-90
2023/03/11 13:59:33;;;;;;;;;3.33;3.33;;;;;13.36;44.04;63874.94;4876549;29;45637;-91
2023/03/11 14:02:07;;;;;;;;;4.33;4.33;;;;;13.30;44.25;63910.72;4885234;29;45237;-91
2023/03/11 14:04:36;;;;;;;;;2.67;2.67;;;;;12.82;44.54;63821.97;4878471;29;45531;-90
2023/03/11 14:07:25;;;;;;;;;6.00;4.67;;;;;13.08;45.06;63776.00;4880682;29;46591;-90
2023/03/11 14:10:05;;;;;;;;;5.00;5.00;;;;;13.22;44.56;63785.13;4868775;29;45601;-91
2023/03/11 14:12:31;;;;;;;;;3.33;3.33;;;;;13.12;44.90;63748.09;4936403;28;45460;-91
2023/03/11 14:15:05;;;;;;;;;4.67;4.67;;;;;13.26;44.83;63636.28;4948569;28;45592;-90
2023/03/11 14:17:30;;;;;;;;;5.33;5.33;;;;;13.26;44.76;63529.66;4962113;28;47559;-90
2023/03/11 14:20:18;;;;;;;;;3.67;3.67;;;;;12.96;44.91;63410.16;4963264;28;45427;-90
2023/03/11 14:22:50;;;;;;;;;3.67;3.67;;;;;13.45;44.50;63425.44;4961326;28;45395;-91
2023/03/11 14:25:18;;;;;;;;;4.00;4.00;;;;;13.03;44.45;63383.44;4960970;28;45471;-90
2023/03/11 14:27:54;;;;;;;;;4.33;4.33;;;;;13.11;44.47;63343.97;4953065;28;48509;-90
2023/03/11 14:30:33;;;;;;;;;8.00;3.67;;;;;12.56;45.09;63067.88;4954257;28;45481;-92
2023/03/11 14:33:04;;;;;;;;;3.67;3.67;;;;;12.51;44.61;63260.50;4962283;28;45460;-93
2023/03/11 14:35:32;;;;;;;;;4.00;4.00;;;;;13.44;44.45;63387.75;4960672;28;45655;-92
2023/03/11 14:37:57;;;;;;;;;7.00;6.33;;;;;12.36;45.04;63361.59;4955609;28;47648;-92
2023/03/11 14:40:29;;;;;;;;;4.00;4.00;;;;;13.35;44.81;63417.63;4953556;28;45518;-92
2023/03/11 14:43:00;;;;;;;;;6.67;5.67;;;;;12.89;45.15;63341.50;4948098;28;45422;-92
2023/03/11 14:45:31;;;;;;;;;6.00;6.00;;;;;13.31;45.07;63370.78;4976020;28;45595;-92
2023/03/11 14:48:12;;;;;;;;;3.33;3.33;;;;;13.04;44.85;63429.59;4971471;28;47427;-92
2023/03/11 14:50:37;;;;;;;;;3.00;3.00;;;;;12.88;44.88;63293.25;4951896;28;45564;-92
2023/03/11 14:53:26;;;;;;;;;5.33;5.33;;;;;13.35;45.14;63159.81;4956795;28;45641;-91
2023/03/11 14:55:57;;;;;;;;;3.67;3.67;;;;;13.42;44.93;63181.31;4910187;28;45712;-92
2023/03/11 14:58:42;;;;;;;;;3.67;3.67;;;;;13.51;45.12;62959.84;4922554;28;46625;-91
2023/03/11 15:01:28;;;;;;;;;5.33;4.00;;;;;13.58;44.96;62884.72;4909078;28;45453;-91
2023/03/11 15:04:08;;;;;;;;;7.00;4.00;;;;;13.52;45.00;62992.78;4906848;28;45354;-92
2023/03/11 15:06:37;;;;;;;;;2.67;2.67;;;;;13.05;45.01;62990.13;4918990;28;45381;-92
2023/03/11 15:09:18;;;;;;;;;4.67;4.67;;;;;13.06;44.81;63124.31;4921850;28;48245;-92
2023/03/11 15:11:56;;;;;;;;;8.33;6.67;;;;;13.00;45.29;62948.06;4910881;28;45467;-91
2023/03/11 15:14:21;;;;;;;;;2.67;2.67;;;;;13.47;45.46;62828.69;4905025;28;45594;-90
2023/03/11 15:16:47;;;;;;;;;4.67;4.67;;;;;12.94;45.68;62809.00;4920678;28;45490;-91
2023/03/11 15:19:28;;;;;;;;;6.33;4.00;;;;;13.35;45.61;63016.59;4925085;28;45558;-92
2023/03/11 15:21:57;;;;;;;;;4.33;2.67;;;;;13.35;45.67;62865.44;4919577;28;45357;-92
2023/03/11 15:24:32;;;;;;;;;2.67;2.67;;;;;13.14;45.70;62957.00;4929230;28;45666;-91
2023/03/11 15:27:02;;;;;;;;;3.67;3.67;;;;;12.67;45.61;62968.16;4920223;28;45528;-92
2023/03/11 15:29:29;;;;;;;;;4.33;4.33;;;;;12.45;46.43;62743.91;4901219;28;46827;-92
2023/03/11 15:31:56;;;;;;;;;3.67;3.67;;;;;12.43;45.89;62985.31;4925442;28;45539;-90
2023/03/11 15:34:27;;;;;;;;;5.67;5.67;;;;;12.63;46.43;62943.09;4950998;28;45567;-89
2023/03/11 15:36:55;;;;;;;;;7.00;5.67;;;;;13.06;46.41;62869.28;4956070;28;45423;-91
2023/03/11 15:39:30;;;;;;;;;4.33;4.33;;;;;13.03;46.09;62934.91;4951984;28;47188;-90
2023/03/11 15:42:12;;;;;;;;;6.00;5.00;;;;;13.06;46.54;62694.31;4949374;28;45577;-89
2023/03/11 15:44:48;;;;;;;;;2.33;2.33;;;;;12.78;46.72;62537.75;4957381;28;45593;-89
2023/03/11 15:47:17;;;;;;;;;4.67;4.67;;;;;12.25;46.69;62444.66;4954048;28;45505;-87
2023/03/11 15:49:42;;;;;;;;;3.67;3.67;;;;;12.87;46.32;62658.81;4958399;28;46061;-93
2023/03/11 15:52:08;;;;;;;;;4.67;4.67;;;;;12.48;46.27;62563.34;4958247;28;45933;-90
2023/03/11 15:54:34;;;;;;;;;6.67;6.00;;;;;13.10;46.85;62402.38;4957566;28;45473;-90
2023/03/11 15:57:00;;;;;;;;;7.00;4.00;;;;;12.89;46.40;62551.81;4957436;28;45402;-92
2023/03/11 15:59:26;;;;;;;;;5.33;5.33;;;;;13.06;46.40;62524.69;4951931;28;46161;-90
2023/03/11 16:01:52;;;;;;;;;4.33;4.33;;;;;12.29;46.14;62448.47;4951060;28;46095;-91
2023/03/11 16:04:18;;;;;;;;;6.00;5.00;;;;;11.84;46.36;62437.66;4950139;28;45719;-91
2023/03/11 16:06:44;;;;;;;;;6.33;6.33;;;;;12.90;46.43;62478.72;4957862;28;45341;-94
2023/03/11 16:09:11;;;;;;;;;4.67;4.67;;;;;13.07;46.71;62465.38;4957937;28;47047;-93
2023/03/11 16:11:37;;;;;;;;;7.00;4.33;;;;;12.35;46.66;62277.63;4963399;28;45476;-92
2023/03/11 16:14:03;;;;;;;;;4.33;4.33;;;;;12.97;46.60;62154.53;4959270;28;45532;-90
2023/03/11 16:16:29;;;;;;;;;6.33;3.33;;;;;13.19;47.00;61955.66;4973444;28;45509;-89
2023/03/11 16:18:55;;;;;;;;;6.00;6.00;;;;;13.04;46.20;62193.88;4954532;28;45570;-89
2023/03/11 16:21:25;;;;;;;;;3.00;3.00;;;;;11.91;46.55;62143.19;4970464;28;45356;-89
2023/03/11 16:23:50;;;;;;;;;4.33;4.33;;;;;12.50;46.68;62243.00;4967059;28;45703;-89
2023/03/11 16:26:16;;;;;;;;;5.33;3.67;;;;;12.93;46.89;62420.47;4968985;28;45401;-90
2023/03/11 16:28:41;;;;;;;;;7.33;6.33;;;;;12.93;46.68;62375.44;4961281;28;46617;-89
2023/03/11 16:31:08;;;;;;;;;7.33;6.33;;;;;12.23;47.55;62122.22;4969640;28;45890;-89
2023/03/11 16:33:35;;;;;;;;;5.33;5.33;;;;;12.40;47.44;61930.94;4967579;28;45417;-88
2023/03/11 16:36:00;;;;;;;;;6.33;6.33;;;;;12.54;47.22;62014.34;4978514;28;45217;-88
2023/03/11 16:38:26;;;;;;;;;8.00;6.33;;;;;11.97;47.54;61911.59;4955218;28;46045;-89
2023/03/11 16:40:55;;;;;;;;;6.33;6.33;;;;;12.76;47.71;62071.97;4951794;28;45378;-95
2023/03/11 16:43:22;;;;;;;;;4.67;4.67;;;;;12.73;47.94;61874.84;4971010;28;45430;-93
2023/03/11 16:45:47;;;;;;;;;8.00;7.67;;;;;12.33;48.74;61523.19;4974852;28;45515;-93
2023/03/11 16:48:12;;;;;;;;;20.00;17.00;;;;;11.77;48.19;61144.84;4945325;28;48499;-94
2023/03/11 16:50:38;;;;;;;;;6.67;6.67;;;;;12.08;48.06;61272.63;4958170;28;45555;-94
2023/03/11 16:53:03;;;;;;;;;5.00;5.00;;;;;11.49;48.29;61089.66;4952491;28;46310;-93
2023/03/11 16:55:29;;;;;;;;;16.00;13.33;;;;;12.07;48.57;60935.59;4954903;28;45525;-92
2023/03/11 16:57:58;;;;;;;;;7.00;7.00;;;;;10.56;48.92;60784.38;4943050;28;48245;-96
2023/03/11 17:00:24;;;;;;;;;7.00;5.33;;;;;11.35;48.50;60691.66;4978689;28;45371;-94
2023/03/11 17:02:53;;;;;;;;;7.00;5.33;;;;;11.89;49.68;60215.78;4964328;28;45566;-94
2023/03/11 17:05:19;;;;;;;;;5.67;5.67;;;;;11.28;49.22;60259.50;4978072;28;45466;-92
2023/03/11 17:07:44;;;;;;;;;5.67;4.67;;;;;11.43;49.42;60031.69;4962532;28;47261;-89
2023/03/11 17:10:13;;;;;;;;;7.33;7.33;;;;;11.30;49.59;59764.53;4975627;28;45410;-91
2023/03/11 17:12:38;;;;;;;;;6.67;5.00;;;;;12.07;49.66;59957.00;4952027;28;45441;-92
2023/03/11 17:15:06;;;;;;;;;4.00;4.00;;;;;12.19;49.63;59744.19;4958607;28;45433;-90
2023/03/11 17:17:34;;;;;;;;;4.00;4.00;;;;;11.35;50.04;59421.59;4960409;28;47221;-94
2023/03/11 17:19:59;;;;;;;;;8.33;5.00;;;;;11.29;50.29;59127.56;4985760;28;45380;-95
2023/03/11 17:22:24;;;;;;;;;9.00;8.00;;;;;11.49;50.41;58828.06;4962240;28;45439;-96
2023/03/11 17:24:50;;;;;;;;;6.33;6.00;;;;;11.25;50.19;58792.88;4965200;28;45459;-93
2023/03/11 17:27:15;;;;;;;;;6.33;5.00;;;;;12.32;50.59;58599.22;4953177;28;46882;-93
2023/03/11 17:29:41;;;;;;;;;7.67;7.00;;;;;11.55;50.87;58055.03;4967071;28;45569;-95
2023/03/11 17:32:07;;;;;;;;;5.33;4.33;;;;;10.54;50.97;57796.53;4957137;28;45445;-96
2023/03/11 17:34:32;;;;;;;;;5.33;5.33;;;;;10.15;51.00;57640.03;4979209;28;44918;-96
2023/03/11 17:36:58;;;;;;;;;9.00;9.00;;;;;10.95;51.03;56982.19;4971708;28;47514;-96
2023/03/11 17:39:24;;;;;;;;;8.00;8.00;;;;;9.72;51.16;56979.03;4982460;28;45290;-96
2023/03/11 17:41:50;;;;;;;;;5.67;5.67;;;;;11.53;51.35;56854.19;4966620;28;45268;-96
2023/03/11 17:44:16;;;;;;;;;8.67;8.00;;;;;11.56;50.95;56706.19;4982618;28;45000;-96
2023/03/11 17:46:41;;;;;;;;;11.33;10.67;;;;;11.26;51.53;56205.09;4974898;28;47880;-96
2023/03/11 17:49:12;;;;;;;;;8.67;7.33;;;;;11.49;51.55;55767.97;4957168;28;45420;-96
2023/03/11 17:51:37;;;;;;;;;7.00;7.00;;;;;10.26;51.59;55506.06;4959121;28;45663;-96
2023/03/11 17:54:03;;;;;;;;;9.33;5.00;;;;;10.94;51.92;55528.56;4974657;28;45476;-96
2023/03/11 17:59:04;;;;;;;;;6.33;6.33;;;;;11.74;52.15;55031.03;6066303;23;46187;-88
2023/03/11 18:01:30;;;;;;;;;11.00;7.00;;;;;12.03;51.85;54953.38;4957658;28;45974;-86
2023/03/11 18:03:56;;;;;;;;;7.00;7.00;;;;;11.81;52.30;54195.66;4960516;28;45348;-89
2023/03/11 18:06:22;;;;;;;;;9.00;6.67;;;;;11.29;52.16;53868.19;4955811;28;48005;-90
2023/03/11 18:08:47;;;;;;;;;14.67;12.00;;;;;10.72;52.81;53133.47;4955801;28;45373;-90